Time,TemperatureF,DewpointF,PressureIn,WindDirection,WindDirectionDegrees,WindSpeedMPH,WindSpeedGustMPH,Humidity,HourlyPrecipIn,Conditions,Clouds,dailyrainin,SoftwareType,DateUTC
2013-05-02 00:00:00,54.3,46.6,24.56,NNE,28,0.0,1.0,75,0.00,,,0.00,VWS V13.01,2013-05-02 04:00:00,
2013-05-02 00:01:00,54.2,46.5,24.56,NNE,16,4.0,4.0,75,0.00,,,0.00,VWS V13.01,2013-05-02 04:01:00,
2013-05-02 00:05:00,54.1,46.4,24.56,NE,40,1.0,4.0,75,0.00,,,0.00,VWS V13.01,2013-05-02 04:05:00,
2013-05-02 00:06:00,54.1,46.7,24.56,NE,40,0.0,1.0,76,0.00,,,0.00,VWS V13.01,2013-05-02 04:06:00,
2013-05-02 00:10:00,54.1,46.7,24.56,NE,40,2.0,3.0,76,0.00,,,0.00,VWS V13.01,2013-05-02 04:10:00,
2013-05-02 00:11:00,54.1,46.7,24.56,NE,40,0.0,2.0,76,0.00,,,0.00,VWS V13.01,2013-05-02 04:11:00,
2013-05-02 00:15:00,54.1,46.7,24.56,NE,40,0.0,2.0,76,0.00,,,0.00,VWS V13.01,2013-05-02 04:15:00,
2013-05-02 00:16:00,54.0,46.6,24.56,NE,40,0.0,1.0,76,0.00,,,0.00,VWS V13.01,2013-05-02 04:16:00,
2013-05-02 00:20:00,53.9,46.5,24.56,NE,40,0.0,1.0,76,0.00,,,0.00,VWS V13.01,2013-05-02 04:20:00,
2013-05-02 00:21:00,53.8,46.4,24.56,NE,40,0.0,2.0,76,0.00,,,0.00,VWS V13.01,2013-05-02 04:21:00,
2013-05-02 00:25:00,53.7,46.3,24.56,NE,40,0.0,2.0,76,0.00,,,0.00,VWS V13.01,2013-05-02 04:25:00,
2013-05-02 00:26:00,53.5,46.5,24.56,NE,40,0.0,0.0,77,0.00,,,0.00,VWS V13.01,2013-05-02 04:26:00,
2013-05-02 00:30:00,53.3,46.3,24.56,NE,40,1.0,1.0,77,0.00,,,0.00,VWS V13.01,2013-05-02 04:30:00,
2013-05-02 00:31:00,53.2,46.2,24.56,NE,40,0.0,1.0,77,0.00,,,0.00,VWS V13.01,2013-05-02 04:31:00,
2013-05-02 00:35:00,53.1,46.4,24.56,NE,40,0.0,1.0,78,0.00,,,0.00,VWS V13.01,2013-05-02 04:35:00,
2013-05-02 00:36:00,53.0,46.3,24.56,NE,40,0.0,0.0,78,0.00,,,0.00,VWS V13.01,2013-05-02 04:36:00,
2013-05-02 00:40:00,52.8,46.1,24.56,NE,40,0.0,0.0,78,0.00,,,0.00,VWS V13.01,2013-05-02 04:40:00,
2013-05-02 00:41:00,52.6,46.3,24.56,NE,40,0.0,0.0,79,0.00,,,0.00,VWS V13.01,2013-05-02 04:41:00,
2013-05-02 00:45:00,52.5,46.2,24.56,NE,40,0.0,0.0,79,0.00,,,0.00,VWS V13.01,2013-05-02 04:45:00,
2013-05-02 00:46:00,52.4,46.4,24.56,NE,40,0.0,0.0,80,0.00,,,0.00,VWS V13.01,2013-05-02 04:46:00,
2013-05-02 00:50:00,52.3,46.3,24.56,NE,40,0.0,0.0,80,0.00,,,0.00,VWS V13.01,2013-05-02 04:50:00,
2013-05-02 00:51:00,52.2,46.2,24.56,NE,40,0.0,0.0,80,0.00,,,0.00,VWS V13.01,2013-05-02 04:51:00,
2013-05-02 00:55:00,52.0,46.0,24.56,NE,40,0.0,0.0,80,0.00,,,0.00,VWS V13.01,2013-05-02 04:55:00,
2013-05-02 00:56:00,51.7,45.7,24.56,NE,40,0.0,0.0,80,0.00,,,0.00,VWS V13.01,2013-05-02 04:56:00,
2013-05-02 01:00:00,51.5,45.9,24.56,NE,40,0.0,0.0,81,0.00,,,0.00,VWS V13.01,2013-05-02 05:00:00,
2013-05-02 01:01:00,51.3,45.7,24.56,NE,40,0.0,0.0,81,0.00,,,0.00,VWS V13.01,2013-05-02 05:01:00,
2013-05-02 01:05:00,51.2,45.6,24.56,NE,40,0.0,0.0,81,0.00,,,0.00,VWS V13.01,2013-05-02 05:05:00,
2013-05-02 01:06:00,51.0,45.7,24.56,NE,40,0.0,1.0,82,0.00,,,0.00,VWS V13.01,2013-05-02 05:06:00,
2013-05-02 01:10:00,50.9,45.6,24.56,NE,40,0.0,1.0,82,0.00,,,0.00,VWS V13.01,2013-05-02 05:10:00,
2013-05-02 01:11:00,50.9,45.6,24.56,NE,40,0.0,0.0,82,0.00,,,0.00,VWS V13.01,2013-05-02 05:11:00,
2013-05-02 01:15:00,50.9,45.9,24.56,NE,40,0.0,0.0,83,0.00,,,0.00,VWS V13.01,2013-05-02 05:15:00,
2013-05-02 01:16:00,50.9,45.6,24.56,NE,40,0.0,0.0,82,0.00,,,0.00,VWS V13.01,2013-05-02 05:16:00,
2013-05-02 01:20:00,50.7,45.4,24.56,NE,40,0.0,0.0,82,0.00,,,0.00,VWS V13.01,2013-05-02 05:20:00,
2013-05-02 01:21:00,50.4,45.4,24.56,NE,40,0.0,0.0,83,0.00,,,0.00,VWS V13.01,2013-05-02 05:21:00,
2013-05-02 01:25:00,50.2,45.2,24.56,NE,40,0.0,0.0,83,0.00,,,0.00,VWS V13.01,2013-05-02 05:25:00,
2013-05-02 01:26:00,50.0,45.4,24.56,NE,40,0.0,0.0,84,0.00,,,0.00,VWS V13.01,2013-05-02 05:26:00,
2013-05-02 01:30:00,49.9,45.3,24.56,NE,40,0.0,0.0,84,0.00,,,0.00,VWS V13.01,2013-05-02 05:30:00,
2013-05-02 01:31:00,49.7,45.1,24.56,NE,40,0.0,0.0,84,0.00,,,0.00,VWS V13.01,2013-05-02 05:31:00,
2013-05-02 01:35:00,49.6,45.3,24.56,NE,40,0.0,0.0,85,0.00,,,0.00,VWS V13.01,2013-05-02 05:35:00,
2013-05-02 01:36:00,49.5,45.2,24.56,NE,40,0.0,0.0,85,0.00,,,0.00,VWS V13.01,2013-05-02 05:36:00,
2013-05-02 01:40:00,49.4,45.1,24.56,NE,40,0.0,0.0,85,0.00,,,0.00,VWS V13.01,2013-05-02 05:40:00,
2013-05-02 01:41:00,49.2,44.9,24.56,NE,40,0.0,0.0,85,0.00,,,0.00,VWS V13.01,2013-05-02 05:41:00,
2013-05-02 01:45:00,49.2,44.9,24.56,NE,40,0.0,0.0,85,0.00,,,0.00,VWS V13.01,2013-05-02 05:45:00,
2013-05-02 01:46:00,49.2,45.2,24.56,NE,40,0.0,0.0,86,0.00,,,0.00,VWS V13.01,2013-05-02 05:46:00,
2013-05-02 01:50:00,49.2,45.2,24.56,NE,40,0.0,0.0,86,0.00,,,0.00,VWS V13.01,2013-05-02 05:50:00,
2013-05-02 01:51:00,49.0,45.0,24.56,NE,40,0.0,0.0,86,0.00,,,0.00,VWS V13.01,2013-05-02 05:51:00,
2013-05-02 01:55:00,49.0,45.0,24.56,NE,40,0.0,0.0,86,0.00,,,0.00,VWS V13.01,2013-05-02 05:55:00,
2013-05-02 01:56:00,48.8,44.8,24.56,NE,40,0.0,0.0,86,0.00,,,0.00,VWS V13.01,2013-05-02 05:56:00,
2013-05-02 02:00:00,48.8,44.8,24.56,NE,40,0.0,0.0,86,0.00,,,0.00,VWS V13.01,2013-05-02 06:00:00,
2013-05-02 02:01:00,48.6,44.6,24.56,NE,40,0.0,0.0,86,0.00,,,0.00,VWS V13.01,2013-05-02 06:01:00,
2013-05-02 02:05:00,48.5,44.5,24.56,NE,40,0.0,0.0,86,0.00,,,0.00,VWS V13.01,2013-05-02 06:05:00,
2013-05-02 02:06:00,48.4,44.7,24.56,NE,40,0.0,0.0,87,0.00,,,0.00,VWS V13.01,2013-05-02 06:06:00,
2013-05-02 02:10:00,48.4,44.7,24.56,NE,40,0.0,0.0,87,0.00,,,0.00,VWS V13.01,2013-05-02 06:10:00,
2013-05-02 02:12:00,48.3,44.6,24.56,NE,40,0.0,0.0,87,0.00,,,0.00,VWS V13.01,2013-05-02 06:12:00,
2013-05-02 02:15:00,48.3,44.6,24.56,NE,40,0.0,0.0,87,0.00,,,0.00,VWS V13.01,2013-05-02 06:15:00,
2013-05-02 02:16:00,48.2,44.5,24.56,NE,40,0.0,0.0,87,0.00,,,0.00,VWS V13.01,2013-05-02 06:16:00,
2013-05-02 02:20:00,48.1,44.4,24.56,NE,40,0.0,0.0,87,0.00,,,0.00,VWS V13.01,2013-05-02 06:20:00,
2013-05-02 02:21:00,48.1,44.4,24.56,NE,40,0.0,0.0,87,0.00,,,0.00,VWS V13.01,2013-05-02 06:21:00,
2013-05-02 02:25:00,48.0,44.3,24.56,NE,40,0.0,0.0,87,0.00,,,0.00,VWS V13.01,2013-05-02 06:25:00,
2013-05-02 02:26:00,47.8,44.1,24.56,NE,40,0.0,0.0,87,0.00,,,0.00,VWS V13.01,2013-05-02 06:26:00,
2013-05-02 02:30:00,47.8,44.1,24.56,NE,40,0.0,0.0,87,0.00,,,0.00,VWS V13.01,2013-05-02 06:30:00,
2013-05-02 02:31:00,47.7,44.3,24.56,NE,40,0.0,0.0,88,0.00,,,0.00,VWS V13.01,2013-05-02 06:31:00,
2013-05-02 02:35:00,47.7,44.3,24.56,NE,40,0.0,0.0,88,0.00,,,0.00,VWS V13.01,2013-05-02 06:35:00,
2013-05-02 02:36:00,47.6,44.2,24.56,NE,40,0.0,0.0,88,0.00,,,0.00,VWS V13.01,2013-05-02 06:36:00,
2013-05-02 02:40:00,47.5,44.1,24.56,NE,40,0.0,0.0,88,0.00,,,0.00,VWS V13.01,2013-05-02 06:40:00,
2013-05-02 02:41:00,47.5,45.3,24.56,NE,40,0.0,0.0,92,0.00,,,0.00,VWS V13.01,2013-05-02 06:41:00,
2013-05-02 02:45:00,47.4,44.0,24.56,NE,40,0.0,0.0,88,0.00,,,0.00,VWS V13.01,2013-05-02 06:45:00,
2013-05-02 02:46:00,47.3,43.9,24.56,NE,40,0.0,0.0,88,0.00,,,0.00,VWS V13.01,2013-05-02 06:46:00,
2013-05-02 02:50:00,47.2,43.8,24.56,NE,40,0.0,0.0,88,0.00,,,0.00,VWS V13.01,2013-05-02 06:50:00,
2013-05-02 02:51:00,47.1,44.0,24.56,NE,40,0.0,0.0,89,0.00,,,0.00,VWS V13.01,2013-05-02 06:51:00,
2013-05-02 02:55:00,47.2,44.1,24.56,NE,40,0.0,0.0,89,0.00,,,0.00,VWS V13.01,2013-05-02 06:55:00,
2013-05-02 02:56:00,47.4,44.3,24.56,NE,40,0.0,0.0,89,0.00,,,0.00,VWS V13.01,2013-05-02 06:56:00,
2013-05-02 03:00:00,47.4,44.3,24.56,NE,40,0.0,1.0,89,0.00,,,0.00,VWS V13.01,2013-05-02 07:00:00,
2013-05-02 03:01:00,47.3,44.2,24.56,NE,40,0.0,0.0,89,0.00,,,0.00,VWS V13.01,2013-05-02 07:01:00,
2013-05-02 03:05:00,47.2,44.1,31.18,NE,40,0.0,0.0,89,0.00,,,0.00,VWS V13.01,2013-05-02 07:05:00,
2013-05-02 03:07:00,47.1,44.0,31.18,NE,40,0.0,0.0,89,0.00,,,0.00,VWS V13.01,2013-05-02 07:07:00,
2013-05-02 03:12:00,46.9,43.8,31.18,NE,40,0.0,0.0,89,0.00,,,0.00,VWS V13.01,2013-05-02 07:12:00,
2013-05-02 03:15:00,46.8,43.7,31.18,NE,40,0.0,0.0,89,0.00,,,0.00,VWS V13.01,2013-05-02 07:15:00,
2013-05-02 03:17:00,46.7,43.6,31.18,NE,40,0.0,0.0,89,0.00,,,0.00,VWS V13.01,2013-05-02 07:17:00,
2013-05-02 03:20:00,46.6,43.5,31.18,NE,40,0.0,0.0,89,0.00,,,0.00,VWS V13.01,2013-05-02 07:20:00,
2013-05-02 03:22:00,46.5,43.4,31.18,NE,40,0.0,0.0,89,0.00,,,0.00,VWS V13.01,2013-05-02 07:22:00,
2013-05-02 03:25:00,46.4,43.3,31.18,NE,40,0.0,0.0,89,0.00,,,0.00,VWS V13.01,2013-05-02 07:25:00,
2013-05-02 03:27:00,46.7,43.9,31.18,NE,40,0.0,0.0,90,0.00,,,0.00,VWS V13.01,2013-05-02 07:27:00,
2013-05-02 03:30:00,46.7,43.9,31.18,NE,40,0.0,0.0,90,0.00,,,0.00,VWS V13.01,2013-05-02 07:30:00,
2013-05-02 03:32:00,46.5,43.4,31.18,NE,40,0.0,0.0,89,0.00,,,0.00,VWS V13.01,2013-05-02 07:32:00,
2013-05-02 03:35:00,46.4,43.3,31.18,NE,40,0.0,0.0,89,0.00,,,0.00,VWS V13.01,2013-05-02 07:35:00,
2013-05-02 03:37:00,46.3,43.5,31.18,NE,40,0.0,0.0,90,0.00,,,0.00,VWS V13.01,2013-05-02 07:37:00,
2013-05-02 03:40:00,46.2,43.4,24.93,NE,40,0.0,0.0,90,0.00,,,0.00,VWS V13.01,2013-05-02 07:40:00,
2013-05-02 03:42:00,46.1,43.3,24.93,NE,40,0.0,0.0,90,0.00,,,0.00,VWS V13.01,2013-05-02 07:42:00,
2013-05-02 03:45:00,46.1,43.3,24.93,NE,40,0.0,0.0,90,0.00,,,0.00,VWS V13.01,2013-05-02 07:45:00,
2013-05-02 03:47:00,46.0,43.2,24.93,NE,40,0.0,0.0,90,0.00,,,0.00,VWS V13.01,2013-05-02 07:47:00,
2013-05-02 03:50:00,46.1,43.3,24.93,NE,40,0.0,0.0,90,0.00,,,0.00,VWS V13.01,2013-05-02 07:50:00,
2013-05-02 03:52:00,46.5,44.0,24.93,NE,40,0.0,0.0,91,0.00,,,0.00,VWS V13.01,2013-05-02 07:52:00,
2013-05-02 03:55:00,46.7,43.9,24.92,NE,40,0.0,0.0,90,0.00,,,0.00,VWS V13.01,2013-05-02 07:55:00,
2013-05-02 03:57:00,46.7,43.9,24.92,NE,40,0.0,0.0,90,0.00,,,0.00,VWS V13.01,2013-05-02 07:57:00,
2013-05-02 04:00:00,46.7,43.9,24.92,NE,40,0.0,0.0,90,0.00,,,0.00,VWS V13.01,2013-05-02 08:00:00,
2013-05-02 04:02:00,46.7,43.9,24.92,NE,40,0.0,0.0,90,0.00,,,0.00,VWS V13.01,2013-05-02 08:02:00,
2013-05-02 04:05:00,46.5,43.7,24.92,NE,40,0.0,0.0,90,0.00,,,0.00,VWS V13.01,2013-05-02 08:05:00,
2013-05-02 04:07:00,46.4,43.6,24.92,NE,40,0.0,0.0,90,0.00,,,0.00,VWS V13.01,2013-05-02 08:07:00,
2013-05-02 04:10:00,46.5,43.7,27.42,NE,40,0.0,0.0,90,0.00,,,0.00,VWS V13.01,2013-05-02 08:10:00,
2013-05-02 04:12:00,46.4,43.6,27.42,NE,40,0.0,0.0,90,0.00,,,0.00,VWS V13.01,2013-05-02 08:12:00,
2013-05-02 04:15:00,46.4,43.6,27.42,NE,40,0.0,0.0,90,0.00,,,0.00,VWS V13.01,2013-05-02 08:15:00,
2013-05-02 04:17:00,46.3,43.5,27.42,NE,40,0.0,0.0,90,0.00,,,0.00,VWS V13.01,2013-05-02 08:17:00,
2013-05-02 04:20:00,46.2,43.4,27.42,NE,40,0.0,0.0,90,0.00,,,0.00,VWS V13.01,2013-05-02 08:20:00,
2013-05-02 04:22:00,46.1,43.3,27.42,NE,40,0.0,0.0,90,0.00,,,0.00,VWS V13.01,2013-05-02 08:22:00,
2013-05-02 04:25:00,46.0,43.2,27.42,NE,40,0.0,0.0,90,0.00,,,0.00,VWS V13.01,2013-05-02 08:25:00,
2013-05-02 04:27:00,45.8,43.0,27.42,NE,40,0.0,0.0,90,0.00,,,0.00,VWS V13.01,2013-05-02 08:27:00,
2013-05-02 04:30:00,45.6,42.8,27.42,NE,40,0.0,0.0,90,0.00,,,0.00,VWS V13.01,2013-05-02 08:30:00,
2013-05-02 04:32:00,45.5,42.7,27.42,NE,40,0.0,0.0,90,0.00,,,0.00,VWS V13.01,2013-05-02 08:32:00,
2013-05-02 04:35:00,45.5,42.7,27.42,NE,40,0.0,0.0,90,0.00,,,0.00,VWS V13.01,2013-05-02 08:35:00,
2013-05-02 04:37:00,45.6,42.8,27.42,NE,40,0.0,0.0,90,0.00,,,0.00,VWS V13.01,2013-05-02 08:37:00,
2013-05-02 04:40:00,45.6,42.8,27.42,NE,40,0.0,0.0,90,0.00,,,0.00,VWS V13.01,2013-05-02 08:40:00,
2013-05-02 04:42:00,45.6,42.8,27.42,NE,40,0.0,0.0,90,0.00,,,0.00,VWS V13.01,2013-05-02 08:42:00,
2013-05-02 04:45:00,45.6,42.8,27.42,NE,40,0.0,0.0,90,0.00,,,0.00,VWS V13.01,2013-05-02 08:45:00,
2013-05-02 04:47:00,45.9,43.4,24.68,NE,40,0.0,0.0,91,0.00,,,0.00,VWS V13.01,2013-05-02 08:47:00,
2013-05-02 04:50:00,46.1,43.6,24.68,NE,40,0.0,0.0,91,0.00,,,0.00,VWS V13.01,2013-05-02 08:50:00,
2013-05-02 04:52:00,46.2,43.7,24.68,NE,40,0.0,0.0,91,0.00,,,0.00,VWS V13.01,2013-05-02 08:52:00,
2013-05-02 04:55:00,46.1,43.6,24.68,NE,40,0.0,0.0,91,0.00,,,0.00,VWS V13.01,2013-05-02 08:55:00,
2013-05-02 04:57:00,46.0,43.5,24.68,NE,40,0.0,0.0,91,0.00,,,0.00,VWS V13.01,2013-05-02 08:57:00,
2013-05-02 05:00:00,45.9,43.4,24.68,NE,40,0.0,0.0,91,0.00,,,0.00,VWS V13.01,2013-05-02 09:00:00,
2013-05-02 05:02:00,45.9,43.4,24.68,NE,40,0.0,0.0,91,0.00,,,0.00,VWS V13.01,2013-05-02 09:02:00,
2013-05-02 05:05:00,45.8,43.3,24.68,NE,40,0.0,0.0,91,0.00,,,0.00,VWS V13.01,2013-05-02 09:05:00,
2013-05-02 05:07:00,45.8,43.3,24.68,NE,40,0.0,0.0,91,0.00,,,0.00,VWS V13.01,2013-05-02 09:07:00,
2013-05-02 05:10:00,45.8,43.3,24.68,NE,40,0.0,0.0,91,0.00,,,0.00,VWS V13.01,2013-05-02 09:10:00,
2013-05-02 05:12:00,45.6,43.1,24.68,NE,40,0.0,0.0,91,0.00,,,0.00,VWS V13.01,2013-05-02 09:12:00,
2013-05-02 05:15:00,45.6,43.1,24.68,NE,40,0.0,0.0,91,0.00,,,0.00,VWS V13.01,2013-05-02 09:15:00,
2013-05-02 05:17:00,45.6,43.1,24.68,NE,40,0.0,0.0,91,0.00,,,0.00,VWS V13.01,2013-05-02 09:17:00,
2013-05-02 05:20:00,45.6,43.1,24.68,NE,40,0.0,0.0,91,0.00,,,0.00,VWS V13.01,2013-05-02 09:20:00,
2013-05-02 05:22:00,45.6,43.1,24.68,NE,40,0.0,0.0,91,0.00,,,0.00,VWS V13.01,2013-05-02 09:22:00,
2013-05-02 05:25:00,45.6,43.1,24.68,NE,40,0.0,0.0,91,0.00,,,0.00,VWS V13.01,2013-05-02 09:25:00,
2013-05-02 05:27:00,45.6,43.1,24.68,NE,40,0.0,0.0,91,0.00,,,0.00,VWS V13.01,2013-05-02 09:27:00,
2013-05-02 05:30:00,45.6,43.1,24.68,NE,40,0.0,0.0,91,0.00,,,0.00,VWS V13.01,2013-05-02 09:30:00,
2013-05-02 05:32:00,45.7,43.2,24.68,NE,40,0.0,0.0,91,0.00,,,0.00,VWS V13.01,2013-05-02 09:32:00,
2013-05-02 05:35:00,45.7,43.2,24.68,NE,40,0.0,0.0,91,0.00,,,0.00,VWS V13.01,2013-05-02 09:35:00,
2013-05-02 05:37:00,45.8,43.3,24.68,NE,40,0.0,0.0,91,0.00,,,0.00,VWS V13.01,2013-05-02 09:37:00,
2013-05-02 05:40:00,45.7,43.2,24.68,NE,40,0.0,0.0,91,0.00,,,0.00,VWS V13.01,2013-05-02 09:40:00,
2013-05-02 05:42:00,45.5,43.0,24.68,NE,40,0.0,0.0,91,0.00,,,0.00,VWS V13.01,2013-05-02 09:42:00,
2013-05-02 05:45:00,45.4,42.9,24.68,NE,40,0.0,1.0,91,0.00,,,0.00,VWS V13.01,2013-05-02 09:45:00,
2013-05-02 05:47:00,45.3,42.8,24.68,NE,40,0.0,0.0,91,0.00,,,0.00,VWS V13.01,2013-05-02 09:47:00,
2013-05-02 05:50:00,45.3,42.8,24.68,NE,40,0.0,0.0,91,0.00,,,0.00,VWS V13.01,2013-05-02 09:50:00,
2013-05-02 05:52:00,45.2,42.7,24.68,NE,40,0.0,0.0,91,0.00,,,0.00,VWS V13.01,2013-05-02 09:52:00,
2013-05-02 05:55:00,45.1,42.6,24.68,NE,40,0.0,0.0,91,0.00,,,0.00,VWS V13.01,2013-05-02 09:55:00,
2013-05-02 05:57:00,45.0,42.5,24.68,NE,40,0.0,0.0,91,0.00,,,0.00,VWS V13.01,2013-05-02 09:57:00,
2013-05-02 06:00:00,45.0,42.5,24.68,NE,40,0.0,0.0,91,0.00,,,0.00,VWS V13.01,2013-05-02 10:00:00,
2013-05-02 06:02:00,45.0,42.5,24.68,NE,40,0.0,0.0,91,0.00,,,0.00,VWS V13.01,2013-05-02 10:02:00,
2013-05-02 06:05:00,45.0,42.5,24.68,NE,40,0.0,0.0,91,0.00,,,0.00,VWS V13.01,2013-05-02 10:05:00,
2013-05-02 06:07:00,45.0,42.5,24.68,NE,40,0.0,0.0,91,0.00,,,0.00,VWS V13.01,2013-05-02 10:07:00,
2013-05-02 06:10:00,45.0,42.5,24.68,NE,40,0.0,0.0,91,0.00,,,0.00,VWS V13.01,2013-05-02 10:10:00,
2013-05-02 06:12:00,45.0,42.5,24.68,NE,40,0.0,0.0,91,0.00,,,0.00,VWS V13.01,2013-05-02 10:12:00,
2013-05-02 06:15:00,45.0,42.5,24.68,NE,40,0.0,0.0,91,0.00,,,0.00,VWS V13.01,2013-05-02 10:15:00,
2013-05-02 06:17:00,44.9,42.4,24.68,NE,40,0.0,0.0,91,0.00,,,0.00,VWS V13.01,2013-05-02 10:17:00,
2013-05-02 06:20:00,44.8,42.3,24.68,NE,40,0.0,0.0,91,0.00,,,0.00,VWS V13.01,2013-05-02 10:20:00,
2013-05-02 06:22:00,44.7,42.2,24.68,NE,40,0.0,0.0,91,0.00,,,0.00,VWS V13.01,2013-05-02 10:22:00,
2013-05-02 06:25:00,44.7,42.2,26.15,NE,40,0.0,0.0,91,0.00,,,0.00,VWS V13.01,2013-05-02 10:25:00,
2013-05-02 06:27:00,44.6,42.1,26.15,NE,40,0.0,0.0,91,0.00,,,0.00,VWS V13.01,2013-05-02 10:27:00,
2013-05-02 06:30:00,44.6,42.1,26.15,NE,40,0.0,0.0,91,0.00,,,0.00,VWS V13.01,2013-05-02 10:30:00,
2013-05-02 06:32:00,44.6,42.1,26.15,NE,40,0.0,0.0,91,0.00,,,0.00,VWS V13.01,2013-05-02 10:32:00,
2013-05-02 06:35:00,44.7,42.2,26.15,NE,40,0.0,0.0,91,0.00,,,0.00,VWS V13.01,2013-05-02 10:35:00,
2013-05-02 06:37:00,44.7,42.2,26.15,NE,40,0.0,0.0,91,0.00,,,0.00,VWS V13.01,2013-05-02 10:37:00,
2013-05-02 06:40:00,44.7,42.2,26.15,NE,40,0.0,0.0,91,0.00,,,0.00,VWS V13.01,2013-05-02 10:40:00,
2013-05-02 06:42:00,44.8,42.3,26.15,NE,40,0.0,0.0,91,0.00,,,0.00,VWS V13.01,2013-05-02 10:42:00,
2013-05-02 06:45:00,44.8,42.3,26.15,NE,40,0.0,0.0,91,0.00,,,0.00,VWS V13.01,2013-05-02 10:45:00,
2013-05-02 06:47:00,44.9,42.7,26.15,NE,40,0.0,0.0,92,0.00,,,0.00,VWS V13.01,2013-05-02 10:47:00,
2013-05-02 06:50:00,45.0,42.8,26.15,NE,40,0.0,0.0,92,0.00,,,0.00,VWS V13.01,2013-05-02 10:50:00,
2013-05-02 06:52:00,45.1,42.9,26.15,NE,40,0.0,0.0,92,0.00,,,0.00,VWS V13.01,2013-05-02 10:52:00,
2013-05-02 06:55:00,45.1,42.9,26.15,NE,40,0.0,0.0,92,0.00,,,0.00,VWS V13.01,2013-05-02 10:55:00,
2013-05-02 06:57:00,45.2,43.0,25.76,NE,40,0.0,1.0,92,0.00,,,0.00,VWS V13.01,2013-05-02 10:57:00,
2013-05-02 07:00:00,45.4,43.2,25.76,NE,41,0.0,1.0,92,0.00,,,0.00,VWS V13.01,2013-05-02 11:00:00,
2013-05-02 07:02:00,45.6,43.4,25.76,NE,40,0.0,0.0,92,0.00,,,0.00,VWS V13.01,2013-05-02 11:02:00,
2013-05-02 07:05:00,45.7,43.5,25.76,NE,40,0.0,0.0,92,0.00,,,0.00,VWS V13.01,2013-05-02 11:05:00,
2013-05-02 07:07:00,46.1,43.9,25.76,NE,40,0.0,0.0,92,0.00,,,0.00,VWS V13.01,2013-05-02 11:07:00,
2013-05-02 07:10:00,46.2,44.0,25.76,NE,40,0.0,0.0,92,0.00,,,0.00,VWS V13.01,2013-05-02 11:10:00,
2013-05-02 07:12:00,46.5,44.3,25.76,NE,40,0.0,0.0,92,0.00,,,0.00,VWS V13.01,2013-05-02 11:12:00,
2013-05-02 07:15:00,46.6,44.4,25.76,NE,40,0.0,0.0,92,0.00,,,0.00,VWS V13.01,2013-05-02 11:15:00,
2013-05-02 07:17:00,47.0,45.1,25.76,NE,40,0.0,1.0,93,0.00,,,0.00,VWS V13.01,2013-05-02 11:17:00,
2013-05-02 07:20:00,47.2,45.0,25.76,NE,40,0.0,1.0,92,0.00,,,0.00,VWS V13.01,2013-05-02 11:20:00,
2013-05-02 07:22:00,47.6,45.7,25.76,NE,40,0.0,0.0,93,0.00,,,0.00,VWS V13.01,2013-05-02 11:22:00,
2013-05-02 07:25:00,47.9,46.0,25.76,NE,40,0.0,0.0,93,0.00,,,0.00,VWS V13.01,2013-05-02 11:25:00,
2013-05-02 07:27:00,48.2,46.3,25.76,NE,40,1.0,1.0,93,0.00,,,0.00,VWS V13.01,2013-05-02 11:27:00,
2013-05-02 07:30:00,48.5,46.6,25.76,NE,40,1.0,2.0,93,0.00,,,0.00,VWS V13.01,2013-05-02 11:30:00,
2013-05-02 07:31:00,48.8,46.9,25.76,North,11,3.0,6.0,93,0.00,,,0.00,VWS V13.01,2013-05-02 11:31:00,
2013-05-02 07:35:00,48.9,46.7,25.76,NNE,17,0.0,7.0,92,0.00,,,0.00,VWS V13.01,2013-05-02 11:35:00,
2013-05-02 07:37:00,49.2,47.0,25.76,NNE,13,2.0,3.0,92,0.00,,,0.00,VWS V13.01,2013-05-02 11:37:00,
2013-05-02 07:40:00,49.4,47.2,25.76,NNE,15,2.0,4.0,92,0.00,,,0.00,VWS V13.01,2013-05-02 11:40:00,
2013-05-02 07:42:00,49.5,47.3,25.76,NE,36,0.0,6.0,92,0.00,,,0.00,VWS V13.01,2013-05-02 11:42:00,
2013-05-02 07:45:00,49.6,47.1,25.76,NNE,29,1.0,6.0,91,0.00,,,0.00,VWS V13.01,2013-05-02 11:45:00,
2013-05-02 07:47:00,49.7,47.2,25.76,NNE,26,3.0,4.0,91,0.00,,,0.00,VWS V13.01,2013-05-02 11:47:00,
2013-05-02 07:50:00,49.7,46.9,25.76,NNE,31,2.0,6.0,90,0.00,,,0.00,VWS V13.01,2013-05-02 11:50:00,
2013-05-02 07:52:00,49.8,47.0,25.76,North,355,3.0,6.0,90,0.00,,,0.00,VWS V13.01,2013-05-02 11:52:00,
2013-05-02 07:55:00,49.9,47.1,25.76,NNW,340,2.0,6.0,90,0.00,,,0.00,VWS V13.01,2013-05-02 11:55:00,
2013-05-02 07:57:00,50.0,46.9,25.76,NE,38,0.0,6.0,89,0.00,,,0.00,VWS V13.01,2013-05-02 11:57:00,
2013-05-02 08:00:00,50.1,47.0,25.76,NE,46,3.0,6.0,89,0.00,,,0.00,VWS V13.01,2013-05-02 12:00:00,
2013-05-02 08:02:00,49.9,46.5,26.27,NE,34,1.0,6.0,88,0.00,,,0.00,VWS V13.01,2013-05-02 12:02:00,
2013-05-02 08:05:00,49.9,46.5,26.27,NNE,30,2.0,7.0,88,0.00,,,0.00,VWS V13.01,2013-05-02 12:05:00,
2013-05-02 08:07:00,50.0,46.6,26.27,NNE,13,2.0,6.0,88,0.00,,,0.00,VWS V13.01,2013-05-02 12:07:00,
2013-05-02 08:10:00,50.0,46.6,26.27,NE,51,4.0,7.0,88,0.00,,,0.00,VWS V13.01,2013-05-02 12:10:00,
2013-05-02 08:12:00,50.0,46.3,26.27,WSW,257,2.0,4.0,87,0.00,,,0.00,VWS V13.01,2013-05-02 12:12:00,
2013-05-02 08:15:00,50.0,46.3,26.27,WSW,257,1.0,4.0,87,0.00,,,0.00,VWS V13.01,2013-05-02 12:15:00,
2013-05-02 08:17:00,50.2,46.5,26.27,NNW,329,0.0,4.0,87,0.00,,,0.00,VWS V13.01,2013-05-02 12:17:00,
2013-05-02 08:20:00,50.3,46.6,26.27,NNW,329,2.0,4.0,87,0.00,,,0.00,VWS V13.01,2013-05-02 12:20:00,
2013-05-02 08:22:00,50.4,46.7,26.27,NE,40,4.0,7.0,87,0.00,,,0.00,VWS V13.01,2013-05-02 12:22:00,
2013-05-02 08:25:00,50.5,46.5,25.76,NNW,342,3.0,7.0,86,0.00,,,0.00,VWS V13.01,2013-05-02 12:25:00,
2013-05-02 08:27:00,50.5,46.2,25.76,ENE,60,3.0,7.0,85,0.00,,,0.00,VWS V13.01,2013-05-02 12:27:00,
2013-05-02 08:30:00,50.5,46.2,25.76,NNE,13,4.0,7.0,85,0.00,,,0.00,VWS V13.01,2013-05-02 12:30:00,
2013-05-02 08:32:00,50.5,46.2,25.76,NNE,33,2.0,5.0,85,0.00,,,0.00,VWS V13.01,2013-05-02 12:32:00,
2013-05-02 08:35:00,50.4,46.1,25.76,NE,45,2.0,6.0,85,0.00,,,0.00,VWS V13.01,2013-05-02 12:35:00,
2013-05-02 08:37:00,50.5,46.2,25.76,NNE,19,7.0,7.0,85,0.00,,,0.00,VWS V13.01,2013-05-02 12:37:00,
2013-05-02 08:40:00,50.5,45.8,25.76,NNE,18,1.0,7.0,84,0.00,,,0.00,VWS V13.01,2013-05-02 12:40:00,
2013-05-02 08:42:00,50.7,46.0,25.76,NNE,26,1.0,6.0,84,0.00,,,0.00,VWS V13.01,2013-05-02 12:42:00,
2013-05-02 08:45:00,50.9,46.2,25.76,NNE,23,5.0,6.0,84,0.00,,,0.00,VWS V13.01,2013-05-02 12:45:00,
2013-05-02 08:47:00,51.0,46.0,25.76,NNW,345,3.0,5.0,83,0.00,,,0.00,VWS V13.01,2013-05-02 12:47:00,
2013-05-02 08:50:00,51.2,46.2,25.76,North,360,3.0,7.0,83,0.00,,,0.00,VWS V13.01,2013-05-02 12:50:00,
2013-05-02 08:52:00,51.4,46.4,25.76,NNE,24,1.0,4.0,83,0.00,,,0.00,VWS V13.01,2013-05-02 12:52:00,
2013-05-02 08:55:00,51.5,46.2,25.76,North,9,7.0,7.0,82,0.00,,,0.00,VWS V13.01,2013-05-02 12:55:00,
2013-05-02 08:57:00,51.5,46.2,25.76,North,355,0.0,10.0,82,0.00,,,0.00,VWS V13.01,2013-05-02 12:57:00,
2013-05-02 09:00:00,51.7,46.4,25.76,North,10,5.0,10.0,82,0.00,,,0.00,VWS V13.01,2013-05-02 13:00:00,
2013-05-02 09:02:00,52.0,46.7,25.76,NNE,25,3.0,6.0,82,0.00,,,0.00,VWS V13.01,2013-05-02 13:02:00,
2013-05-02 09:05:00,52.2,46.9,25.76,ENE,66,3.0,6.0,82,0.00,,,0.00,VWS V13.01,2013-05-02 13:05:00,
2013-05-02 09:07:00,52.3,46.7,25.76,NE,36,2.0,5.0,81,0.00,,,0.00,VWS V13.01,2013-05-02 13:07:00,
2013-05-02 09:10:00,52.4,46.8,25.76,NW,319,0.0,5.0,81,0.00,,,0.00,VWS V13.01,2013-05-02 13:10:00,
2013-05-02 09:12:00,52.5,46.5,25.76,NNW,337,3.0,9.0,80,0.00,,,0.00,VWS V13.01,2013-05-02 13:12:00,
2013-05-02 09:15:00,52.5,46.2,25.76,NNW,347,4.0,9.0,79,0.00,,,0.00,VWS V13.01,2013-05-02 13:15:00,
2013-05-02 09:17:00,52.2,45.9,25.76,ENE,73,1.0,5.0,79,0.00,,,0.00,VWS V13.01,2013-05-02 13:17:00,
2013-05-02 09:20:00,52.3,46.0,25.76,North,355,2.0,5.0,79,0.00,,,0.00,VWS V13.01,2013-05-02 13:20:00,
2013-05-02 09:22:00,52.6,46.6,25.76,North,10,1.0,3.0,80,0.00,,,0.00,VWS V13.01,2013-05-02 13:22:00,
2013-05-02 09:25:00,53.0,46.7,25.76,North,9,0.0,4.0,79,0.00,,,0.00,VWS V13.01,2013-05-02 13:25:00,
2013-05-02 09:27:00,53.5,46.8,23.24,East,94,5.0,5.0,78,0.00,,,0.00,VWS V13.01,2013-05-02 13:27:00,
2013-05-02 09:30:00,53.4,46.7,23.24,NNW,348,9.0,9.0,78,0.00,,,0.00,VWS V13.01,2013-05-02 13:30:00,
2013-05-02 09:32:00,53.3,46.6,23.24,ENE,69,4.0,10.0,78,0.00,,,0.00,VWS V13.01,2013-05-02 13:32:00,
2013-05-02 09:35:00,53.1,46.1,23.24,ENE,57,4.0,10.0,77,0.00,,,0.00,VWS V13.01,2013-05-02 13:35:00,
2013-05-02 09:37:00,52.7,46.0,23.24,North,355,5.0,6.0,78,0.00,,,0.00,VWS V13.01,2013-05-02 13:37:00,
2013-05-02 09:40:00,52.9,46.6,23.24,North,360,1.0,6.0,79,0.00,,,0.00,VWS V13.01,2013-05-02 13:40:00,
2013-05-02 09:42:00,53.5,46.8,23.24,ENE,58,0.0,5.0,78,0.00,,,0.00,VWS V13.01,2013-05-02 13:42:00,
2013-05-02 09:45:00,53.9,47.2,23.24,ENE,59,0.0,5.0,78,0.00,,,0.00,VWS V13.01,2013-05-02 13:45:00,
2013-05-02 09:47:00,54.3,47.2,23.24,NNE,28,3.0,7.0,77,0.00,,,0.00,VWS V13.01,2013-05-02 13:47:00,
2013-05-02 09:50:00,54.5,47.1,23.24,ENE,68,4.0,7.0,76,0.00,,,0.00,VWS V13.01,2013-05-02 13:50:00,
2013-05-02 09:52:00,54.6,47.2,23.24,North,360,6.0,6.0,76,0.00,,,0.00,VWS V13.01,2013-05-02 13:52:00,
2013-05-02 09:55:00,54.4,47.0,27.40,North,360,1.0,10.0,76,0.00,,,0.00,VWS V13.01,2013-05-02 13:55:00,
2013-05-02 09:57:00,54.6,47.5,27.40,NNW,348,4.0,6.0,77,0.00,,,0.00,VWS V13.01,2013-05-02 13:57:00,
2013-05-02 10:00:00,54.9,47.5,27.40,NNW,339,1.0,7.0,76,0.00,,,0.00,VWS V13.01,2013-05-02 14:00:00,
2013-05-02 10:02:00,55.2,47.4,27.40,East,80,4.0,7.0,75,0.00,,,0.00,VWS V13.01,2013-05-02 14:02:00,
2013-05-02 10:05:00,54.9,46.8,27.40,NE,50,0.0,10.0,74,0.00,,,0.00,VWS V13.01,2013-05-02 14:05:00,
2013-05-02 10:07:00,54.8,47.0,27.40,East,80,2.0,7.0,75,0.00,,,0.00,VWS V13.01,2013-05-02 14:07:00,
2013-05-02 10:10:00,54.6,46.8,27.40,North,10,4.0,8.0,75,0.00,,,0.00,VWS V13.01,2013-05-02 14:10:00,
2013-05-02 10:12:00,54.9,47.5,27.40,NE,49,0.0,6.0,76,0.00,,,0.00,VWS V13.01,2013-05-02 14:12:00,
2013-05-02 10:15:00,55.3,47.9,27.40,NW,307,2.0,6.0,76,0.00,,,0.00,VWS V13.01,2013-05-02 14:15:00,
2013-05-02 10:17:00,56.2,48.0,27.41,North,5,8.0,11.0,74,0.00,,,0.00,VWS V13.01,2013-05-02 14:17:00,
2013-05-02 10:20:00,56.2,47.7,27.41,ENE,58,7.0,11.0,73,0.00,,,0.00,VWS V13.01,2013-05-02 14:20:00,
2013-05-02 10:22:00,56.6,48.1,27.40,NNE,21,2.0,10.0,73,0.00,,,0.00,VWS V13.01,2013-05-02 14:22:00,
2013-05-02 10:25:00,56.7,47.8,27.40,East,79,2.0,10.0,72,0.00,,,0.00,VWS V13.01,2013-05-02 14:25:00,
2013-05-02 10:27:00,56.9,47.6,27.40,North,355,4.0,7.0,71,0.00,,,0.00,VWS V13.01,2013-05-02 14:27:00,
2013-05-02 10:30:00,56.9,47.6,27.40,NE,36,3.0,7.0,71,0.00,,,0.00,VWS V13.01,2013-05-02 14:30:00,
2013-05-02 10:32:00,57.1,48.2,27.40,NNE,30,4.0,9.0,72,0.00,,,0.00,VWS V13.01,2013-05-02 14:32:00,
2013-05-02 10:35:00,57.7,48.8,24.87,North,350,4.0,9.0,72,0.00,,,0.00,VWS V13.01,2013-05-02 14:35:00,
2013-05-02 10:37:00,58.1,48.4,24.87,East,83,5.0,6.0,70,0.00,,,0.00,VWS V13.01,2013-05-02 14:37:00,
2013-05-02 10:40:00,58.2,48.8,24.87,NE,39,5.0,7.0,71,0.00,,,0.00,VWS V13.01,2013-05-02 14:40:00,
2013-05-02 10:42:00,58.0,48.7,24.87,ENE,78,5.0,6.0,71,0.00,,,0.00,VWS V13.01,2013-05-02 14:42:00,
2013-05-02 10:45:00,57.9,48.2,24.87,NNE,14,7.0,7.0,70,0.00,,,0.00,VWS V13.01,2013-05-02 14:45:00,
2013-05-02 10:47:00,58.0,48.3,24.87,NNE,31,2.0,7.0,70,0.00,,,0.00,VWS V13.01,2013-05-02 14:47:00,
2013-05-02 10:50:00,58.0,48.7,24.87,NE,46,3.0,7.0,71,0.00,,,0.00,VWS V13.01,2013-05-02 14:50:00,
2013-05-02 10:52:00,58.0,48.3,24.87,NNE,26,5.0,7.0,70,0.00,,,0.00,VWS V13.01,2013-05-02 14:52:00,
2013-05-02 10:55:00,57.9,48.2,24.87,ENE,59,5.0,7.0,70,0.00,,,0.00,VWS V13.01,2013-05-02 14:55:00,
2013-05-02 10:57:00,57.8,48.1,24.87,SW,225,0.0,5.0,70,0.00,,,0.00,VWS V13.01,2013-05-02 14:57:00,
2013-05-02 11:00:00,58.1,48.4,24.87,NE,50,3.0,6.0,70,0.00,,,0.00,VWS V13.01,2013-05-02 15:00:00,
2013-05-02 11:02:00,58.5,48.4,24.87,NNE,22,4.0,10.0,69,0.00,,,0.00,VWS V13.01,2013-05-02 15:02:00,
2013-05-02 11:05:00,58.4,48.3,24.87,NNE,20,2.0,10.0,69,0.00,,,0.00,VWS V13.01,2013-05-02 15:05:00,
2013-05-02 11:07:00,58.9,48.4,24.87,NE,38,2.0,5.0,68,0.00,,,0.00,VWS V13.01,2013-05-02 15:07:00,
2013-05-02 11:10:00,59.0,48.1,24.87,NE,45,1.0,6.0,67,0.00,,,0.00,VWS V13.01,2013-05-02 15:10:00,
2013-05-02 11:12:00,59.5,48.5,24.87,East,90,3.0,4.0,67,0.00,,,0.00,VWS V13.01,2013-05-02 15:12:00,
2013-05-02 11:15:00,59.5,48.2,24.87,East,88,2.0,5.0,66,0.00,,,0.00,VWS V13.01,2013-05-02 15:15:00,
2013-05-02 11:17:00,60.0,48.6,24.87,NNE,22,7.0,9.0,66,0.00,,,0.00,VWS V13.01,2013-05-02 15:17:00,
2013-05-02 11:20:00,60.0,48.2,24.87,ESE,111,2.0,9.0,65,0.00,,,0.00,VWS V13.01,2013-05-02 15:20:00,
2013-05-02 11:22:00,60.7,49.3,22.49,NW,306,1.0,4.0,66,0.00,,,0.00,VWS V13.01,2013-05-02 15:22:00,
2013-05-02 11:25:00,61.1,48.8,21.74,North,355,3.0,5.0,64,0.00,,,0.00,VWS V13.01,2013-05-02 15:25:00,
2013-05-02 11:27:00,60.8,48.6,21.74,NNE,24,4.0,7.0,64,0.00,,,0.00,VWS V13.01,2013-05-02 15:27:00,
2013-05-02 11:30:00,60.4,48.6,21.74,North,360,2.0,8.0,65,0.00,,,0.00,VWS V13.01,2013-05-02 15:30:00,
2013-05-02 11:32:00,60.8,49.0,21.74,NE,41,1.0,4.0,65,0.00,,,0.00,VWS V13.01,2013-05-02 15:32:00,
2013-05-02 11:35:00,60.8,49.0,21.74,North,355,3.0,10.0,65,0.00,,,0.00,VWS V13.01,2013-05-02 15:35:00,
2013-05-02 11:37:00,60.9,49.1,21.74,NNE,26,5.0,7.0,65,0.00,,,0.00,VWS V13.01,2013-05-02 15:37:00,
2013-05-02 11:40:00,60.7,48.9,21.74,ENE,72,3.0,7.0,65,0.00,,,0.00,VWS V13.01,2013-05-02 15:40:00,
2013-05-02 11:42:00,61.3,49.5,21.74,SE,126,3.0,6.0,65,0.00,,,0.00,VWS V13.01,2013-05-02 15:42:00,
2013-05-02 11:45:00,61.6,49.7,21.74,East,86,5.0,7.0,65,0.00,,,0.00,VWS V13.01,2013-05-02 15:45:00,
2013-05-02 11:47:00,61.4,49.1,21.74,North,11,5.0,9.0,64,0.00,,,0.00,VWS V13.01,2013-05-02 15:47:00,
2013-05-02 11:50:00,61.6,50.2,21.74,NNE,24,2.0,9.0,66,0.00,,,0.00,VWS V13.01,2013-05-02 15:50:00,
2013-05-02 11:52:00,62.0,49.7,21.74,NNW,336,6.0,10.0,64,0.00,,,0.00,VWS V13.01,2013-05-02 15:52:00,
2013-05-02 11:55:00,62.0,50.1,21.74,North,11,5.0,10.0,65,0.00,,,0.00,VWS V13.01,2013-05-02 15:55:00,
2013-05-02 11:57:00,61.6,49.3,21.74,North,360,0.0,11.0,64,0.00,,,0.00,VWS V13.01,2013-05-02 15:57:00,
2013-05-02 12:00:00,61.7,49.8,21.74,NNW,346,1.0,11.0,65,0.00,,,0.00,VWS V13.01,2013-05-02 16:00:00,
2013-05-02 12:02:00,62.1,49.8,21.74,ENE,64,3.0,5.0,64,0.00,,,0.00,VWS V13.01,2013-05-02 16:02:00,
2013-05-02 12:05:00,62.3,50.0,21.74,ESE,121,2.0,5.0,64,0.00,,,0.00,VWS V13.01,2013-05-02 16:05:00,
2013-05-02 12:07:00,62.9,50.5,21.74,WSW,237,5.0,5.0,64,0.00,,,0.00,VWS V13.01,2013-05-02 16:07:00,
2013-05-02 12:10:00,62.8,50.0,21.74,West,264,5.0,7.0,63,0.00,,,0.00,VWS V13.01,2013-05-02 16:10:00,
2013-05-02 12:12:00,62.5,50.6,21.74,WNW,295,5.0,9.0,65,0.00,,,0.00,VWS V13.01,2013-05-02 16:12:00,
2013-05-02 12:15:00,62.7,50.4,25.76,NNW,335,3.0,13.0,64,0.00,,,0.00,VWS V13.01,2013-05-02 16:15:00,
2013-05-02 12:17:00,63.2,50.4,25.76,ENE,60,2.0,4.0,63,0.00,,,0.00,VWS V13.01,2013-05-02 16:17:00,
2013-05-02 12:20:00,63.4,50.6,25.76,ESE,107,4.0,6.0,63,0.00,,,0.00,VWS V13.01,2013-05-02 16:20:00,
2013-05-02 12:22:00,63.8,51.0,25.76,ENE,57,0.0,6.0,63,0.00,,,0.00,VWS V13.01,2013-05-02 16:22:00,
2013-05-02 12:25:00,64.1,50.8,25.76,ENE,69,6.0,7.0,62,0.00,,,0.00,VWS V13.01,2013-05-02 16:25:00,
2013-05-02 12:27:00,63.4,50.2,25.76,East,82,4.0,6.0,62,0.00,,,0.00,VWS V13.01,2013-05-02 16:27:00,
2013-05-02 12:30:00,63.2,50.8,25.76,ESE,110,6.0,6.0,64,0.00,,,0.00,VWS V13.01,2013-05-02 16:30:00,
2013-05-02 12:32:00,63.2,50.8,25.76,NE,42,5.0,7.0,64,0.00,,,0.00,VWS V13.01,2013-05-02 16:32:00,
2013-05-02 12:35:00,63.5,51.1,25.76,NE,53,5.0,7.0,64,0.00,,,0.00,VWS V13.01,2013-05-02 16:35:00,
2013-05-02 12:37:00,63.7,51.3,25.76,ENE,68,1.0,5.0,64,0.00,,,0.00,VWS V13.01,2013-05-02 16:37:00,
2013-05-02 12:40:00,64.0,51.6,25.76,NE,49,4.0,6.0,64,0.00,,,0.00,VWS V13.01,2013-05-02 16:40:00,
2013-05-02 12:42:00,64.1,51.3,25.76,NNE,15,0.0,6.0,63,0.00,,,0.00,VWS V13.01,2013-05-02 16:42:00,
2013-05-02 12:45:00,64.5,51.6,25.76,West,275,5.0,6.0,63,0.00,,,0.00,VWS V13.01,2013-05-02 16:45:00,
2013-05-02 12:47:00,64.8,51.5,25.76,NW,319,2.0,6.0,62,0.00,,,0.00,VWS V13.01,2013-05-02 16:47:00,
2013-05-02 12:50:00,65.4,52.5,25.76,NE,45,3.0,6.0,63,0.00,,,0.00,VWS V13.01,2013-05-02 16:50:00,
2013-05-02 12:52:00,65.7,51.5,25.76,ENE,59,2.0,8.0,60,0.00,,,0.00,VWS V13.01,2013-05-02 16:52:00,
2013-05-02 12:55:00,65.7,51.5,25.76,NNE,29,1.0,8.0,60,0.00,,,0.00,VWS V13.01,2013-05-02 16:55:00,
2013-05-02 12:57:00,66.3,52.5,25.76,East,87,2.0,3.0,61,0.00,,,0.00,VWS V13.01,2013-05-02 16:57:00,
2013-05-02 13:00:00,67.0,52.7,25.76,ENE,74,0.0,3.0,60,0.00,,,0.00,VWS V13.01,2013-05-02 17:00:00,
2013-05-02 13:02:00,67.4,52.1,25.76,North,360,1.0,4.0,58,0.00,,,0.00,VWS V13.01,2013-05-02 17:02:00,
2013-05-02 13:05:00,67.7,52.9,25.76,NE,35,3.0,4.0,59,0.00,,,0.00,VWS V13.01,2013-05-02 17:05:00,
2013-05-02 13:07:00,67.9,52.1,25.76,East,92,3.0,4.0,57,0.00,,,0.00,VWS V13.01,2013-05-02 17:07:00,
2013-05-02 13:10:00,67.5,51.8,25.76,North,5,0.0,5.0,57,0.00,,,0.00,VWS V13.01,2013-05-02 17:10:00,
2013-05-02 13:12:00,67.5,51.8,25.76,WSW,257,3.0,6.0,57,0.00,,,0.00,VWS V13.01,2013-05-02 17:12:00,
2013-05-02 13:15:00,67.1,51.4,25.76,West,259,0.0,7.0,57,0.00,,,0.00,VWS V13.01,2013-05-02 17:15:00,
2013-05-02 13:17:00,66.8,51.6,25.76,SE,145,3.0,7.0,58,0.00,,,0.00,VWS V13.01,2013-05-02 17:17:00,
2013-05-02 13:20:00,66.4,51.2,25.76,NE,34,0.0,7.0,58,0.00,,,0.00,VWS V13.01,2013-05-02 17:20:00,
2013-05-02 13:22:00,66.0,51.7,25.76,NNW,329,7.0,7.0,60,0.00,,,0.00,VWS V13.01,2013-05-02 17:22:00,
2013-05-02 13:25:00,66.1,52.3,25.76,NNW,343,5.0,8.0,61,0.00,,,0.00,VWS V13.01,2013-05-02 17:25:00,
2013-05-02 13:27:00,66.2,51.5,25.76,ENE,63,4.0,7.0,59,0.00,,,0.00,VWS V13.01,2013-05-02 17:27:00,
2013-05-02 13:30:00,66.4,51.7,25.76,NNW,348,2.0,10.0,59,0.00,,,0.00,VWS V13.01,2013-05-02 17:30:00,
2013-05-02 13:32:00,66.5,51.8,25.76,WNW,298,5.0,7.0,59,0.00,,,0.00,VWS V13.01,2013-05-02 17:32:00,
2013-05-02 13:35:00,66.6,51.8,25.76,North,349,4.0,7.0,59,0.00,,,0.00,VWS V13.01,2013-05-02 17:35:00,
2013-05-02 13:37:00,67.0,52.2,25.76,NNE,31,2.0,9.0,59,0.00,,,0.00,VWS V13.01,2013-05-02 17:37:00,
2013-05-02 13:40:00,67.4,51.7,31.20,NNE,30,2.0,9.0,57,0.00,,,0.00,VWS V13.01,2013-05-02 17:40:00,
2013-05-02 13:42:00,67.5,51.8,31.20,NNE,13,4.0,10.0,57,0.00,,,0.00,VWS V13.01,2013-05-02 17:42:00,
2013-05-02 13:45:00,67.2,51.5,31.20,NNE,13,5.0,10.0,57,0.00,,,0.00,VWS V13.01,2013-05-02 17:45:00,
2013-05-02 13:47:00,66.5,51.3,31.20,NNE,18,1.0,10.0,58,0.00,,,0.00,VWS V13.01,2013-05-02 17:47:00,
2013-05-02 13:50:00,66.7,51.9,31.20,NNE,15,5.0,10.0,59,0.00,,,0.00,VWS V13.01,2013-05-02 17:50:00,
2013-05-02 13:52:00,66.8,51.6,31.20,NNE,19,4.0,14.0,58,0.00,,,0.00,VWS V13.01,2013-05-02 17:52:00,
2013-05-02 13:55:00,66.7,51.9,31.20,NNE,32,4.0,14.0,59,0.00,,,0.00,VWS V13.01,2013-05-02 17:55:00,
2013-05-02 13:57:00,67.1,52.3,31.20,NNE,21,1.0,4.0,59,0.00,,,0.00,VWS V13.01,2013-05-02 17:57:00,
2013-05-02 14:00:00,67.4,52.1,31.20,NNE,12,4.0,12.0,58,0.00,,,0.00,VWS V13.01,2013-05-02 18:00:00,
2013-05-02 14:02:00,67.9,52.6,31.20,East,94,4.0,7.0,58,0.00,,,0.00,VWS V13.01,2013-05-02 18:02:00,
2013-05-02 14:05:00,67.7,51.9,31.20,NE,55,3.0,7.0,57,0.00,,,0.00,VWS V13.01,2013-05-02 18:05:00,
2013-05-02 14:07:00,67.3,52.0,31.20,East,83,3.0,7.0,58,0.00,,,0.00,VWS V13.01,2013-05-02 18:07:00,
2013-05-02 14:10:00,67.4,52.1,31.20,NE,42,4.0,7.0,58,0.00,,,0.00,VWS V13.01,2013-05-02 18:10:00,
2013-05-02 14:12:00,67.3,51.6,31.20,NNW,345,2.0,5.0,57,0.00,,,0.00,VWS V13.01,2013-05-02 18:12:00,
2013-05-02 14:15:00,67.6,52.3,31.20,SE,144,3.0,6.0,58,0.00,,,0.00,VWS V13.01,2013-05-02 18:15:00,
2013-05-02 14:17:00,68.1,52.3,31.20,North,355,4.0,6.0,57,0.00,,,0.00,VWS V13.01,2013-05-02 18:17:00,
2013-05-02 14:20:00,68.2,51.9,31.20,ENE,69,3.0,9.0,56,0.00,,,0.00,VWS V13.01,2013-05-02 18:20:00,
2013-05-02 14:22:00,67.8,52.0,31.20,NE,40,2.0,12.0,57,0.00,,,0.00,VWS V13.01,2013-05-02 18:22:00,
2013-05-02 14:25:00,67.5,52.2,31.20,NNE,13,6.0,12.0,58,0.00,,,0.00,VWS V13.01,2013-05-02 18:25:00,
2013-05-02 14:27:00,67.4,52.1,31.20,NE,41,3.0,8.0,58,0.00,,,0.00,VWS V13.01,2013-05-02 18:27:00,
2013-05-02 14:30:00,67.7,52.9,31.20,ENE,70,7.0,8.0,59,0.00,,,0.00,VWS V13.01,2013-05-02 18:30:00,